Aérodrome :
LOGIN :

S'inscrire | Disclaimer

   EN    FR    IT 

 










Légende :    VFR   VFR Marginal   IFR   IFR Intensif   IFR Très Intensif
Visi : 
Plafond : 
>= 8 km
>= 3000ft
5 à 8 km
1000 à 3000 ft
1500m à 5 km
500 à 1000 ft
800 à 1500m
200 à 500 ft
< 800m
< 200 ft
Symboles :   Orages  Brouillard  Fortes neiges  Fortes précipitations  Vent > 20 kt
SIGMETs :   Divers  Orages  Givrage  Turbulence  Onde Orograph.  Cendres Volcan.







- Altitude de l'aérodrome : 779 ft
- Code IATA : CMF
- Voir les cartes d'approche


LFLB - Chambery / Aix-Les-Bains

DERNIER METAR :
  • 180630Z AUTO 16002KT CAVOK 19/18 Q1018 NOSIG

METARs EXPIRÉS :
  • 180600Z AUTO VRB01KT CAVOK 17/16 Q1018 NOSIG
  • 180530Z AUTO 17002KT CAVOK 16/15 Q1018 NOSIG
  • 180500Z AUTO 13002KT CAVOK 15/15 Q1019 NOSIG
  • 180430Z AUTO 18002KT 9999 4800 NSC 16/15 Q1018 NOSIG
  • 180400Z AUTO 00000KT CAVOK 16/14 Q1018 NOSIG

TAF TAF LFLB
Valide du 18 à 06h jusqu'au 19 à 06h UTC


180500Z 1806/1906 18004KT CAVOK
TEMPO 1814/1819 34030KT 5000 TSRA SCT020 SCT050CB BKN070
PROB30
TEMPO 1819/1824 SHRA BKN050
Pas de NOTAMs connus pour ce terrain.



MET'MAP, la Météo Aéronautique d'un coup d'oeil ! - Copyright ORBIFLY Décembre 2007 - Disclaimer

ORBIFLY MET'MAP TEAM :

Programmation & Développement : Alexandra Zaïnal
Conception & Développement : Baudouin d'Aumeries
Co-Programmation & Développement : Marc-Olivier Méhu
Soutien technique & logistique : Manuel Goepfert

Contact : metmap@orbifly.com




SOURCES & CREDITS :

   NOAA